Time,TemperatureF,DewpointF,PressureIn,WindDirection,WindDirectionDegrees,WindSpeedMPH,WindSpeedGustMPH,Humidity,HourlyPrecipIn,Conditions,Clouds,dailyrainin,SolarRadiationWatts/m^2,SoftwareType,DateUTC
2013-02-05 00:22:00,32.0,30.0,-100.00,ESE,107,0.0,6.0,93,0.00,,,0.00,0.000000,,2013-02-05 07:22:00,
2013-02-05 00:31:00,32.0,30.0,-100.00,ESE,107,0.0,6.0,93,0.00,,,0.00,0.000000,,2013-02-05 07:31:00,
2013-02-05 00:41:00,32.0,30.0,-100.00,ESE,107,0.0,6.0,93,0.00,,,0.00,0.000000,,2013-02-05 07:41:00,
2013-02-05 00:51:00,32.0,30.0,-100.00,ESE,107,0.0,6.0,93,0.00,,,0.00,0.000000,,2013-02-05 07:51:00,
2013-02-05 01:21:00,31.0,29.0,-100.00,East,89,2.0,3.0,92,0.00,,,0.00,0.000000,,2013-02-05 08:21:00,
2013-02-05 01:31:00,31.0,29.0,-100.00,East,89,2.0,3.0,92,0.00,,,0.00,0.000000,,2013-02-05 08:31:00,
2013-02-05 01:41:00,31.0,29.0,-100.00,East,89,2.0,3.0,92,0.00,,,0.00,0.000000,,2013-02-05 08:41:00,
2013-02-05 01:52:00,31.0,29.0,-100.00,East,89,2.0,3.0,92,0.00,,,0.00,0.000000,,2013-02-05 08:52:00,
2013-02-05 02:21:00,32.0,29.0,-100.00,East,100,2.0,4.0,90,0.00,,,0.00,0.000000,,2013-02-05 09:21:00,
2013-02-05 02:31:00,32.0,29.0,-100.00,East,100,2.0,4.0,90,0.00,,,0.00,0.000000,,2013-02-05 09:31:00,
2013-02-05 02:42:00,32.0,29.0,-100.00,East,100,2.0,4.0,90,0.00,,,0.00,0.000000,,2013-02-05 09:42:00,
2013-02-05 02:51:00,32.0,29.0,-100.00,East,100,2.0,4.0,90,0.00,,,0.00,0.000000,,2013-02-05 09:51:00,
2013-02-05 03:21:00,31.0,28.0,-100.00,East,99,1.0,4.0,90,0.00,,,0.00,0.000000,,2013-02-05 10:21:00,
2013-02-05 03:31:00,31.0,28.0,-100.00,East,99,1.0,4.0,90,0.00,,,0.00,0.000000,,2013-02-05 10:31:00,
2013-02-05 03:42:00,31.0,28.0,-100.00,East,99,1.0,4.0,90,0.00,,,0.00,0.000000,,2013-02-05 10:42:00,
2013-02-05 03:52:00,31.0,28.0,-100.00,East,99,1.0,4.0,90,0.00,,,0.00,0.000000,,2013-02-05 10:52:00,
2013-02-05 04:22:00,31.0,28.0,-100.00,East,89,3.0,4.0,88,0.00,,,0.00,0.000000,,2013-02-05 11:22:00,
2013-02-05 04:32:00,31.0,28.0,-100.00,East,89,3.0,4.0,88,0.00,,,0.00,0.000000,,2013-02-05 11:32:00,
2013-02-05 04:41:00,31.0,28.0,-100.00,East,89,3.0,4.0,88,0.00,,,0.00,0.000000,,2013-02-05 11:41:00,
2013-02-05 04:52:00,31.0,28.0,-100.00,East,89,3.0,4.0,88,0.00,,,0.00,0.000000,,2013-02-05 11:52:00,
2013-02-05 05:21:00,30.0,27.0,-100.00,East,87,0.0,3.0,87,0.00,,,-99.99,0.000000,,2013-02-05 12:21:00,
2013-02-05 05:32:00,30.0,27.0,-100.00,East,87,0.0,3.0,87,0.00,,,-99.99,0.000000,,2013-02-05 12:32:00,
2013-02-05 05:41:00,30.0,27.0,-100.00,East,87,0.0,3.0,87,0.00,,,-99.99,0.000000,,2013-02-05 12:41:00,
2013-02-05 05:52:00,30.0,27.0,-100.00,East,87,0.0,3.0,87,0.00,,,-99.99,0.000000,,2013-02-05 12:52:00,
2013-02-05 06:21:00,31.0,26.0,-100.00,SSW,213,1.0,4.0,83,0.00,,,0.00,0.000000,,2013-02-05 13:21:00,
2013-02-05 06:31:00,31.0,26.0,-100.00,SSW,213,1.0,4.0,83,0.00,,,0.00,0.000000,,2013-02-05 13:31:00,
2013-02-05 06:42:00,31.0,26.0,-100.00,SSW,213,1.0,4.0,83,0.00,,,0.00,0.000000,,2013-02-05 13:42:00,
2013-02-05 06:51:00,31.0,26.0,-100.00,SSW,213,1.0,4.0,83,0.00,,,0.00,0.000000,,2013-02-05 13:51:00,
2013-02-05 07:21:00,31.0,26.0,-100.00,ENE,78,0.0,2.0,82,0.00,,,0.00,0.000000,,2013-02-05 14:21:00,
2013-02-05 07:31:00,31.0,26.0,-100.00,ENE,78,0.0,2.0,82,0.00,,,0.00,0.000000,,2013-02-05 14:31:00,
2013-02-05 07:42:00,31.0,26.0,-100.00,ENE,78,0.0,2.0,82,0.00,,,0.00,0.000000,,2013-02-05 14:42:00,
2013-02-05 07:52:00,31.0,26.0,-100.00,ENE,78,0.0,2.0,82,0.00,,,0.00,0.000000,,2013-02-05 14:52:00,
2013-02-05 08:21:00,30.0,26.0,-100.00,North,358,0.0,3.0,84,0.00,,,0.00,0.000000,,2013-02-05 15:21:00,
2013-02-05 08:32:00,30.0,26.0,-100.00,North,358,0.0,3.0,84,0.00,,,0.00,0.000000,,2013-02-05 15:32:00,
2013-02-05 08:41:00,30.0,26.0,-100.00,North,358,0.0,3.0,84,0.00,,,0.00,0.000000,,2013-02-05 15:41:00,
2013-02-05 08:51:00,30.0,26.0,-100.00,North,358,0.0,3.0,84,0.00,,,0.00,0.000000,,2013-02-05 15:51:00,
2013-02-05 09:22:00,30.0,26.0,-100.00,East,86,1.0,2.0,86,0.00,,,-99.99,27.000000,,2013-02-05 16:22:00,
2013-02-05 09:32:00,30.0,26.0,-100.00,East,86,1.0,2.0,86,0.00,,,-99.99,27.000000,,2013-02-05 16:32:00,
2013-02-05 09:42:00,30.0,26.0,-100.00,East,86,1.0,2.0,86,0.00,,,-99.99,27.000000,,2013-02-05 16:42:00,
2013-02-05 09:51:00,30.0,26.0,-100.00,East,86,1.0,2.0,86,0.00,,,-99.99,27.000000,,2013-02-05 16:51:00,
2013-02-05 10:21:00,33.0,26.0,-100.00,West,268,1.0,7.0,74,0.00,,,-99.99,75.000000,,2013-02-05 17:21:00,
2013-02-05 10:32:00,33.0,26.0,-100.00,West,268,1.0,7.0,74,0.00,,,-99.99,75.000000,,2013-02-05 17:32:00,
2013-02-05 10:42:00,33.0,26.0,-100.00,West,268,1.0,7.0,74,0.00,,,-99.99,75.000000,,2013-02-05 17:42:00,
2013-02-05 10:52:00,33.0,26.0,-100.00,West,268,1.0,7.0,74,0.00,,,-99.99,75.000000,,2013-02-05 17:52:00,
2013-02-05 11:21:00,32.0,26.0,-100.00,WNW,298,3.0,7.0,78,0.00,,,0.00,181.000000,,2013-02-05 18:21:00,
2013-02-05 11:32:00,32.0,26.0,-100.00,WNW,298,3.0,7.0,78,0.00,,,0.00,181.000000,,2013-02-05 18:32:00,
2013-02-05 11:42:00,32.0,26.0,-100.00,WNW,298,3.0,7.0,78,0.00,,,0.00,181.000000,,2013-02-05 18:42:00,
2013-02-05 11:51:00,32.0,26.0,-100.00,WNW,298,3.0,7.0,78,0.00,,,0.00,181.000000,,2013-02-05 18:51:00,
2013-02-05 12:21:00,39.0,27.0,-100.00,WNW,296,2.0,7.0,63,0.00,,,0.00,254.000000,,2013-02-05 19:21:00,
2013-02-05 12:31:00,39.0,27.0,-100.00,WNW,296,2.0,7.0,63,0.00,,,0.00,254.000000,,2013-02-05 19:31:00,
2013-02-05 12:42:00,39.0,27.0,-100.00,WNW,296,2.0,7.0,63,0.00,,,0.00,254.000000,,2013-02-05 19:42:00,
2013-02-05 12:51:00,39.0,27.0,-100.00,WNW,296,2.0,7.0,63,0.00,,,0.00,254.000000,,2013-02-05 19:51:00,
2013-02-05 13:21:00,41.0,29.0,-100.00,NNW,335,1.0,5.0,61,0.00,,,0.00,353.000000,,2013-02-05 20:21:00,
2013-02-05 13:32:00,41.0,29.0,-100.00,NNW,335,1.0,5.0,61,0.00,,,0.00,353.000000,,2013-02-05 20:32:00,
2013-02-05 13:41:00,41.0,29.0,-100.00,NNW,335,1.0,5.0,61,0.00,,,0.00,353.000000,,2013-02-05 20:41:00,
2013-02-05 13:52:00,41.0,29.0,-100.00,NNW,335,1.0,5.0,61,0.00,,,0.00,353.000000,,2013-02-05 20:52:00,
2013-02-05 14:21:00,41.0,29.0,-100.00,NW,326,2.0,7.0,61,0.00,,,0.00,410.000000,,2013-02-05 21:21:00,
2013-02-05 14:32:00,41.0,29.0,-100.00,NW,326,2.0,7.0,61,0.00,,,0.00,410.000000,,2013-02-05 21:32:00,
2013-02-05 14:41:00,41.0,29.0,-100.00,NW,326,2.0,7.0,61,0.00,,,0.00,410.000000,,2013-02-05 21:41:00,
2013-02-05 14:51:00,41.0,29.0,-100.00,NW,326,2.0,7.0,61,0.00,,,0.00,410.000000,,2013-02-05 21:51:00,
2013-02-05 15:21:00,42.0,29.0,-100.00,WNW,297,3.0,7.0,59,0.00,,,-99.99,371.000000,,2013-02-05 22:21:00,
2013-02-05 15:32:00,42.0,29.0,-100.00,WNW,297,3.0,7.0,59,0.00,,,-99.99,371.000000,,2013-02-05 22:32:00,
2013-02-05 15:41:00,42.0,29.0,-100.00,WNW,297,3.0,7.0,59,0.00,,,-99.99,371.000000,,2013-02-05 22:41:00,
2013-02-05 15:51:00,42.0,29.0,-100.00,WNW,297,3.0,7.0,59,0.00,,,-99.99,371.000000,,2013-02-05 22:51:00,
2013-02-05 16:21:00,44.0,29.0,-100.00,NW,321,0.0,8.0,55,0.00,,,0.00,333.000000,,2013-02-05 23:21:00,
2013-02-05 16:32:00,44.0,29.0,-100.00,NW,321,0.0,8.0,55,0.00,,,0.00,333.000000,,2013-02-05 23:32:00,
2013-02-05 16:41:00,44.0,29.0,-100.00,NW,321,0.0,8.0,55,0.00,,,0.00,333.000000,,2013-02-05 23:41:00,
2013-02-05 16:52:00,44.0,29.0,-100.00,NW,321,0.0,8.0,55,0.00,,,0.00,333.000000,,2013-02-05 23:52:00,
2013-02-05 17:21:00,38.0,27.0,-100.00,NW,305,2.0,8.0,65,0.00,,,0.00,178.000000,,2013-02-06 00:21:00,
2013-02-05 17:32:00,38.0,27.0,-100.00,NW,305,2.0,8.0,65,0.00,,,0.00,178.000000,,2013-02-06 00:32:00,
2013-02-05 17:42:00,38.0,27.0,-100.00,NW,305,2.0,8.0,65,0.00,,,0.00,178.000000,,2013-02-06 00:42:00,
2013-02-05 17:52:00,38.0,27.0,-100.00,NW,305,2.0,8.0,65,0.00,,,0.00,178.000000,,2013-02-06 00:52:00,
2013-02-05 18:21:00,33.0,26.0,-100.00,WNW,288,3.0,6.0,75,0.00,,,0.00,33.000000,,2013-02-06 01:21:00,
2013-02-05 18:32:00,33.0,26.0,-100.00,WNW,288,3.0,6.0,75,0.00,,,0.00,33.000000,,2013-02-06 01:32:00,
2013-02-05 18:42:00,33.0,26.0,-100.00,WNW,288,3.0,6.0,75,0.00,,,0.00,33.000000,,2013-02-06 01:42:00,
2013-02-05 18:52:00,33.0,26.0,-100.00,WNW,288,3.0,6.0,75,0.00,,,0.00,33.000000,,2013-02-06 01:52:00,
2013-02-05 19:22:00,31.0,26.0,-100.00,East,92,1.0,8.0,83,0.00,,,0.00,1.000000,,2013-02-06 02:22:00,
2013-02-05 19:32:00,31.0,26.0,-100.00,East,92,1.0,8.0,83,0.00,,,0.00,1.000000,,2013-02-06 02:32:00,
2013-02-05 19:42:00,31.0,26.0,-100.00,East,92,1.0,8.0,83,0.00,,,0.00,1.000000,,2013-02-06 02:42:00,
2013-02-05 19:52:00,31.0,26.0,-100.00,East,92,1.0,8.0,83,0.00,,,0.00,1.000000,,2013-02-06 02:52:00,
2013-02-05 20:21:00,31.0,26.0,-100.00,North,2,1.0,6.0,83,0.00,,,0.00,0.000000,,2013-02-06 03:21:00,
2013-02-05 20:32:00,31.0,26.0,-100.00,North,2,1.0,6.0,83,0.00,,,0.00,0.000000,,2013-02-06 03:32:00,
2013-02-05 20:42:00,31.0,26.0,-100.00,North,2,1.0,6.0,83,0.00,,,0.00,0.000000,,2013-02-06 03:42:00,
2013-02-05 20:52:00,31.0,26.0,-100.00,North,2,1.0,6.0,83,0.00,,,0.00,0.000000,,2013-02-06 03:52:00,
2013-02-05 21:21:00,31.0,26.0,-100.00,East,101,0.0,3.0,81,0.00,,,0.00,0.000000,,2013-02-06 04:21:00,
2013-02-05 21:31:00,31.0,26.0,-100.00,East,101,0.0,3.0,81,0.00,,,0.00,0.000000,,2013-02-06 04:31:00,
2013-02-05 21:41:00,31.0,26.0,-100.00,East,101,0.0,3.0,81,0.00,,,0.00,0.000000,,2013-02-06 04:41:00,
2013-02-05 21:51:00,31.0,26.0,-100.00,East,101,0.0,3.0,81,0.00,,,0.00,0.000000,,2013-02-06 04:51:00,
2013-02-05 22:22:00,31.0,26.0,-100.00,WNW,290,1.0,4.0,83,0.00,,,0.00,0.000000,,2013-02-06 05:22:00,
2013-02-05 22:31:00,31.0,26.0,-100.00,WNW,290,1.0,4.0,83,0.00,,,0.00,0.000000,,2013-02-06 05:31:00,
2013-02-05 22:41:00,31.0,26.0,-100.00,WNW,290,1.0,4.0,83,0.00,,,0.00,0.000000,,2013-02-06 05:41:00,
2013-02-05 22:52:00,31.0,26.0,-100.00,WNW,290,1.0,4.0,83,0.00,,,0.00,0.000000,,2013-02-06 05:52:00,
2013-02-05 23:21:00,29.0,26.0,-100.00,North,5,0.0,2.0,87,0.00,,,0.00,0.000000,,2013-02-06 06:21:00,
2013-02-05 23:31:00,29.0,26.0,-100.00,North,5,0.0,2.0,87,0.00,,,0.00,0.000000,,2013-02-06 06:31:00,
2013-02-05 23:42:00,29.0,26.0,-100.00,North,5,0.0,2.0,87,0.00,,,0.00,0.000000,,2013-02-06 06:42:00,
2013-02-05 23:51:00,29.0,26.0,-100.00,North,5,0.0,2.0,87,0.00,,,0.00,0.000000,,2013-02-06 06:51:00,